createdAt,value
2023-07-10T00:00:39.052Z,22.48
2023-07-10T00:03:09.532Z,22.48
2023-07-10T00:05:36.071Z,22.48
2023-07-10T00:08:02.554Z,22.42
2023-07-10T00:10:30.687Z,22.51
2023-07-10T00:12:57.164Z,22.49
2023-07-10T00:15:24.595Z,22.49
2023-07-10T00:17:52.218Z,22.49
2023-07-10T00:20:20.629Z,22.49
2023-07-10T00:22:47.179Z,22.49
2023-07-10T00:25:16.512Z,22.50
2023-07-10T00:27:46.963Z,22.51
2023-07-10T00:30:18.377Z,22.51
2023-07-10T00:32:45.811Z,22.52
2023-07-10T00:35:18.213Z,22.53
2023-07-10T00:37:50.818Z,22.57
2023-07-10T00:40:21.717Z,22.60
2023-07-10T00:42:48.475Z,22.60
2023-07-10T00:45:16.351Z,22.60
2023-07-10T00:47:43.998Z,22.61
2023-07-10T00:50:14.672Z,22.63
2023-07-10T00:52:43.620Z,22.64
2023-07-10T00:55:22.145Z,22.63
2023-07-10T00:57:51.514Z,22.66
2023-07-10T01:00:20.798Z,22.63
2023-07-10T01:02:47.785Z,22.60
2023-07-10T01:05:15.239Z,22.58
2023-07-10T01:07:44.168Z,22.55
2023-07-10T01:10:11.935Z,22.51
2023-07-10T01:12:39.891Z,22.47
2023-07-10T01:15:07.392Z,22.44
2023-07-10T01:17:34.068Z,22.42
2023-07-10T01:20:06.926Z,22.42
2023-07-10T01:22:33.477Z,22.43
2023-07-10T01:25:00.517Z,22.46
2023-07-10T01:27:29.535Z,22.46
2023-07-10T01:29:59.300Z,22.45
2023-07-10T01:32:28.775Z,22.43
2023-07-10T01:34:58.011Z,22.41
2023-07-10T01:37:24.447Z,22.37
2023-07-10T01:39:52.306Z,22.36
2023-07-10T01:42:18.840Z,22.32
2023-07-10T01:44:46.730Z,22.25
2023-07-10T01:47:16.662Z,22.21
2023-07-10T01:49:48.838Z,22.18
2023-07-10T01:52:16.523Z,22.17
2023-07-10T01:54:45.810Z,22.12
2023-07-10T01:57:13.025Z,22.10
2023-07-10T01:59:39.513Z,22.12
2023-07-10T02:02:06.055Z,22.11
2023-07-10T02:04:32.584Z,22.10
2023-07-10T02:06:59.000Z,22.07
2023-07-10T02:09:29.430Z,22.04
2023-07-10T02:11:56.302Z,22.00
2023-07-10T02:14:23.113Z,21.97
2023-07-10T02:16:50.029Z,21.90
2023-07-10T02:19:17.446Z,21.86
2023-07-10T02:21:43.834Z,21.84
2023-07-10T02:24:10.506Z,21.82
2023-07-10T02:26:36.839Z,21.82
2023-07-10T02:29:03.891Z,21.72
2023-07-10T02:31:30.514Z,21.77
2023-07-10T02:33:57.065Z,21.74
2023-07-10T02:36:23.823Z,21.70
2023-07-10T02:38:50.484Z,21.65
2023-07-10T02:41:16.914Z,21.60
2023-07-10T02:43:43.273Z,21.57
2023-07-10T02:46:09.662Z,21.54
2023-07-10T02:48:36.067Z,21.52
2023-07-10T02:51:02.524Z,21.49
2023-07-10T02:53:28.920Z,21.49
2023-07-10T02:55:55.308Z,21.47
2023-07-10T02:58:21.651Z,21.43
2023-07-10T03:00:58.410Z,21.41
2023-07-10T03:03:25.375Z,21.37
2023-07-10T03:05:56.135Z,21.36
2023-07-10T03:08:22.756Z,21.34
2023-07-10T03:10:49.210Z,21.30
2023-07-10T03:13:15.552Z,21.29
2023-07-10T03:15:41.968Z,21.28
2023-07-10T03:18:08.370Z,21.25
2023-07-10T03:20:34.720Z,21.21
2023-07-10T03:23:01.115Z,21.18
2023-07-10T03:25:27.431Z,21.16
2023-07-10T03:27:53.923Z,21.14
2023-07-10T03:30:20.462Z,21.11
2023-07-10T03:32:46.951Z,21.07
2023-07-10T03:35:13.476Z,21.05
2023-07-10T03:37:39.843Z,20.99
2023-07-10T03:40:06.699Z,20.95
2023-07-10T03:42:33.049Z,20.96
2023-07-10T03:44:59.580Z,20.96
2023-07-10T03:47:25.912Z,20.97
2023-07-10T03:49:52.521Z,20.96
2023-07-10T03:52:18.820Z,20.94
2023-07-10T03:54:45.249Z,20.92
2023-07-10T03:57:11.579Z,20.89
2023-07-10T03:59:40.086Z,20.86
2023-07-10T04:02:06.493Z,20.88
2023-07-10T04:04:32.906Z,20.86
2023-07-10T04:06:59.292Z,20.84
2023-07-10T04:09:25.658Z,20.83
2023-07-10T04:11:55.014Z,20.82
2023-07-10T04:14:21.476Z,20.83
2023-07-10T04:16:50.426Z,20.82
2023-07-10T04:19:16.880Z,20.77
2023-07-10T04:21:45.478Z,20.68
2023-07-10T04:24:11.975Z,20.64
2023-07-10T04:26:38.347Z,20.56
2023-07-10T04:29:05.673Z,20.54
2023-07-10T04:31:32.477Z,20.54
2023-07-10T04:33:59.392Z,20.50
2023-07-10T04:36:26.188Z,20.48
2023-07-10T04:38:52.806Z,20.45
2023-07-10T04:41:22.241Z,20.47
2023-07-10T04:43:49.036Z,20.49
2023-07-10T04:46:16.542Z,20.50
2023-07-10T04:48:44.173Z,20.53
2023-07-10T04:51:12.124Z,20.57
2023-07-10T04:53:38.726Z,20.61
2023-07-10T04:56:06.600Z,20.64
2023-07-10T04:58:53.554Z,20.68
2023-07-10T05:01:21.196Z,20.70
2023-07-10T05:03:47.625Z,20.73
2023-07-10T05:06:14.289Z,20.78
2023-07-10T05:08:40.691Z,20.80
2023-07-10T05:11:07.211Z,20.82
2023-07-10T05:13:33.706Z,20.84
2023-07-10T05:16:00.892Z,20.91
2023-07-10T05:18:28.048Z,20.94
2023-07-10T05:20:54.570Z,20.99
2023-07-10T05:23:21.007Z,21.03
2023-07-10T05:25:56.176Z,21.06
2023-07-10T05:28:22.712Z,21.13
2023-07-10T05:30:49.069Z,21.17
2023-07-10T05:33:18.347Z,21.22
2023-07-10T05:35:51.832Z,21.27
2023-07-10T05:38:18.215Z,21.32
2023-07-10T05:40:44.613Z,21.39
2023-07-10T05:43:11.057Z,21.40
2023-07-10T05:45:37.456Z,21.43
2023-07-10T05:48:03.933Z,21.51
2023-07-10T05:50:30.307Z,21.58
2023-07-10T05:52:56.675Z,21.67
2023-07-10T05:55:23.218Z,21.74
2023-07-10T05:57:49.597Z,21.87
2023-07-10T06:00:16.296Z,21.99
2023-07-10T06:02:42.673Z,22.08
2023-07-10T06:05:09.186Z,22.23
2023-07-10T06:07:35.556Z,22.37
2023-07-10T06:10:02.097Z,22.58
2023-07-10T06:12:28.489Z,22.87
2023-07-10T06:14:54.886Z,23.14
2023-07-10T06:17:21.230Z,23.40
2023-07-10T06:19:47.573Z,23.59
2023-07-10T06:22:14.127Z,23.85
2023-07-10T06:24:40.803Z,24.13
2023-07-10T06:27:07.724Z,24.35
2023-07-10T06:29:37.500Z,24.51
2023-07-10T06:32:04.506Z,24.71
2023-07-10T06:34:30.914Z,24.88
2023-07-10T06:36:57.293Z,25.05
2023-07-10T06:39:27.372Z,25.21
2023-07-10T06:41:54.878Z,25.36
2023-07-10T06:44:21.762Z,25.55
2023-07-10T06:46:48.190Z,25.39
2023-07-10T06:49:14.609Z,25.24
2023-07-10T06:51:40.999Z,25.26
2023-07-10T06:54:07.497Z,25.29
2023-07-10T06:56:34.080Z,25.33
2023-07-10T06:59:00.566Z,25.49
2023-07-10T07:01:26.999Z,25.48
2023-07-10T07:03:53.454Z,25.52
2023-07-10T07:06:19.907Z,25.66
2023-07-10T07:08:50.295Z,25.72
2023-07-10T07:11:16.652Z,25.85
2023-07-10T07:13:43.013Z,25.93
2023-07-10T07:16:10.072Z,26.01
2023-07-10T07:18:36.572Z,26.20
2023-07-10T07:21:04.641Z,26.39
2023-07-10T07:23:31.071Z,26.58
2023-07-10T07:25:57.797Z,26.71
2023-07-10T07:28:24.370Z,26.85
2023-07-10T07:30:50.812Z,26.95
2023-07-10T07:33:18.178Z,27.07
2023-07-10T07:35:44.632Z,27.14
2023-07-10T07:38:10.977Z,27.27
2023-07-10T07:40:37.540Z,27.44
2023-07-10T07:43:04.046Z,27.51
2023-07-10T07:45:30.654Z,27.53
2023-07-10T07:47:57.141Z,27.47
2023-07-10T07:50:23.657Z,27.40
2023-07-10T07:52:50.078Z,27.52
2023-07-10T07:55:16.482Z,27.79
2023-07-10T07:57:43.397Z,28.03
2023-07-10T08:00:11.245Z,28.16
2023-07-10T08:02:37.646Z,28.28
2023-07-10T08:05:08.742Z,28.42
2023-07-10T08:07:37.607Z,28.38
2023-07-10T08:10:05.104Z,28.36
2023-07-10T08:12:31.489Z,28.49
2023-07-10T08:14:57.907Z,28.40
2023-07-10T08:17:27.151Z,28.24
2023-07-10T08:19:53.760Z,28.30
2023-07-10T08:22:20.293Z,28.40
2023-07-10T08:24:46.677Z,28.42
2023-07-10T08:27:13.049Z,28.44
2023-07-10T08:29:39.515Z,28.62
2023-07-10T08:32:06.294Z,28.72
2023-07-10T08:34:32.681Z,28.80
2023-07-10T08:37:00.256Z,29.04
2023-07-10T08:39:26.842Z,29.14
2023-07-10T08:41:55.245Z,29.14
2023-07-10T08:44:27.233Z,29.27
2023-07-10T08:46:53.727Z,29.31
2023-07-10T08:49:22.997Z,29.23
2023-07-10T08:51:49.348Z,29.18
2023-07-10T08:54:19.565Z,29.11
2023-07-10T08:56:55.044Z,29.04
2023-07-10T08:59:27.420Z,28.92
2023-07-10T09:01:55.272Z,28.73
2023-07-10T09:04:22.545Z,28.68
2023-07-10T09:06:51.040Z,28.46
2023-07-10T09:09:46.930Z,28.21
2023-07-10T09:12:16.105Z,28.26
2023-07-10T09:14:47.229Z,28.32
2023-07-10T09:17:20.539Z,28.31
2023-07-10T09:19:50.145Z,28.39
2023-07-10T09:22:16.573Z,28.50
2023-07-10T09:24:43.012Z,28.31
2023-07-10T09:27:13.749Z,28.10
2023-07-10T09:29:40.159Z,28.13
2023-07-10T09:32:12.090Z,28.28
2023-07-10T09:34:42.020Z,28.15
2023-07-10T09:37:12.051Z,28.11
2023-07-10T09:39:38.617Z,28.08
2023-07-10T09:42:05.861Z,28.08
2023-07-10T09:44:40.403Z,28.13
2023-07-10T09:47:11.500Z,28.18
2023-07-10T09:49:43.022Z,28.36
2023-07-10T09:52:30.533Z,28.73
2023-07-10T09:55:09.438Z,29.19
2023-07-10T09:57:50.872Z,29.51
2023-07-10T10:00:18.330Z,29.73
2023-07-10T10:02:49.226Z,29.90
2023-07-10T10:05:17.620Z,30.26
2023-07-10T10:07:51.354Z,30.42
2023-07-10T10:10:31.594Z,30.44
2023-07-10T10:13:02.303Z,30.28
2023-07-10T10:15:47.103Z,30.38
2023-07-10T10:18:19.335Z,30.49
2023-07-10T10:20:46.724Z,30.56
2023-07-10T10:23:29.405Z,30.75
2023-07-10T10:25:59.288Z,30.80
2023-07-10T10:28:31.052Z,30.73
2023-07-10T10:31:03.071Z,30.93
2023-07-10T10:33:39.152Z,31.06
2023-07-10T10:36:22.698Z,30.92
2023-07-10T10:38:51.829Z,30.77
2023-07-10T10:41:21.322Z,30.60
2023-07-10T10:43:50.710Z,30.57
2023-07-10T10:46:33.864Z,30.59
2023-07-10T10:49:19.036Z,30.70
2023-07-10T10:51:55.212Z,30.94
2023-07-10T10:54:33.745Z,30.93
2023-07-10T10:57:13.074Z,30.88
2023-07-10T11:00:08.576Z,30.95
2023-07-10T11:02:54.910Z,30.88
2023-07-10T11:05:21.605Z,30.80
2023-07-10T11:07:51.603Z,30.95
2023-07-10T11:10:23.112Z,31.15
2023-07-10T11:12:49.602Z,31.33
2023-07-10T11:15:17.356Z,31.35
2023-07-10T11:17:45.389Z,31.46
2023-07-10T11:20:14.774Z,31.53
2023-07-10T11:22:49.172Z,31.27
2023-07-10T11:25:29.111Z,30.77
2023-07-10T11:27:55.504Z,30.67
2023-07-10T11:30:30.808Z,30.61
2023-07-10T11:33:05.987Z,30.17
2023-07-10T11:35:33.503Z,30.01
2023-07-10T11:38:02.640Z,30.00
2023-07-10T11:40:29.098Z,29.78
2023-07-10T11:42:56.016Z,29.64
2023-07-10T11:45:32.523Z,29.62
2023-07-10T11:47:59.035Z,29.58
2023-07-10T11:50:26.893Z,29.74
2023-07-10T11:53:07.445Z,29.80
2023-07-10T11:55:41.927Z,29.98
2023-07-10T11:58:29.760Z,29.89
2023-07-10T12:01:05.527Z,30.04
2023-07-10T12:03:38.521Z,30.28
2023-07-10T12:06:14.608Z,30.25
2023-07-10T12:08:41.100Z,30.32
2023-07-10T12:11:25.489Z,30.32
2023-07-10T12:13:51.998Z,30.07
2023-07-10T12:16:26.839Z,30.06
2023-07-10T12:19:04.397Z,29.97
2023-07-10T12:21:31.646Z,29.75
2023-07-10T12:24:02.270Z,29.76
2023-07-10T12:27:14.851Z,30.09
2023-07-10T12:29:15.797Z,30.42
2023-07-10T12:31:42.991Z,30.76
2023-07-10T12:34:18.212Z,30.96
2023-07-10T12:36:44.814Z,31.10
2023-07-10T12:39:11.802Z,31.14
2023-07-10T12:41:39.225Z,31.23
2023-07-10T12:44:08.503Z,31.29
2023-07-10T12:46:36.116Z,31.32
2023-07-10T12:49:03.285Z,31.34
2023-07-10T12:51:32.456Z,31.41
2023-07-10T12:54:00.802Z,31.54
2023-07-10T12:56:29.038Z,31.56
2023-07-10T12:58:57.140Z,31.46
2023-07-10T13:01:30.428Z,31.53
2023-07-10T13:04:18.730Z,31.64
2023-07-10T13:06:45.430Z,31.79
2023-07-10T13:09:20.288Z,32.04
2023-07-10T13:11:46.695Z,32.27
2023-07-10T13:14:27.419Z,32.37
2023-07-10T13:16:55.615Z,32.52
2023-07-10T13:19:22.056Z,32.54
2023-07-10T13:21:48.692Z,32.57
2023-07-10T13:24:15.136Z,32.58
2023-07-10T13:26:44.169Z,32.45
2023-07-10T13:29:12.043Z,32.43
2023-07-10T13:31:38.450Z,32.40
2023-07-10T13:34:04.940Z,32.35
2023-07-10T13:36:31.292Z,32.34
2023-07-10T13:38:57.634Z,32.25
2023-07-10T13:41:25.003Z,32.26
2023-07-10T13:43:53.884Z,32.28
2023-07-10T13:46:25.117Z,32.31
2023-07-10T13:48:52.479Z,32.29
2023-07-10T13:51:19.693Z,32.24
2023-07-10T13:53:46.125Z,32.25
2023-07-10T13:56:14.085Z,32.15
2023-07-10T13:58:40.509Z,32.03
2023-07-10T14:01:06.945Z,31.88
2023-07-10T14:03:36.661Z,31.82
2023-07-10T14:06:05.188Z,31.85
2023-07-10T14:08:31.812Z,31.80
2023-07-10T14:10:59.073Z,31.73
2023-07-10T14:13:26.150Z,31.57
2023-07-10T14:15:55.033Z,31.47
2023-07-10T14:18:26.576Z,31.28
2023-07-10T14:20:53.073Z,31.13
2023-07-10T14:23:20.987Z,31.07
2023-07-10T14:25:47.728Z,30.94
2023-07-10T14:28:15.301Z,30.92
2023-07-10T14:30:43.927Z,30.85
2023-07-10T14:33:11.232Z,30.84
2023-07-10T14:35:38.464Z,30.84
2023-07-10T14:38:34.168Z,30.80
2023-07-10T14:41:00.532Z,30.91
2023-07-10T14:43:27.539Z,30.91
2023-07-10T14:45:56.253Z,30.74
2023-07-10T14:48:25.125Z,30.57
2023-07-10T14:50:51.784Z,30.54
2023-07-10T14:53:19.844Z,30.40
2023-07-10T14:55:48.088Z,30.35
2023-07-10T14:58:19.232Z,30.28
2023-07-10T15:00:49.323Z,30.18
2023-07-10T15:03:16.270Z,30.08
2023-07-10T15:05:47.757Z,30.03
2023-07-10T15:08:23.256Z,30.02
2023-07-10T15:10:49.703Z,30.01
2023-07-10T15:13:17.583Z,30.05
2023-07-10T15:15:44.101Z,30.03
2023-07-10T15:18:14.445Z,30.00
2023-07-10T15:20:42.230Z,29.98
2023-07-10T15:23:22.108Z,29.97
2023-07-10T15:25:49.041Z,29.88
2023-07-10T15:28:15.765Z,29.82
2023-07-10T15:30:42.237Z,29.75
2023-07-10T15:33:12.566Z,29.64
2023-07-10T15:35:39.107Z,29.58
2023-07-10T15:38:06.647Z,29.51
2023-07-10T15:40:35.011Z,29.50
2023-07-10T15:43:02.018Z,29.51
2023-07-10T15:45:32.556Z,29.51
2023-07-10T15:48:00.061Z,29.50
2023-07-10T15:50:27.377Z,29.43
2023-07-10T15:52:54.491Z,29.34
2023-07-10T15:55:28.160Z,29.35
2023-07-10T15:57:55.505Z,29.26
2023-07-10T16:00:23.165Z,29.18
2023-07-10T16:02:50.343Z,29.20
2023-07-10T16:05:21.894Z,29.23
2023-07-10T16:07:49.170Z,29.24
2023-07-10T16:10:15.700Z,29.23
2023-07-10T16:12:42.893Z,29.22
2023-07-10T16:15:16.424Z,29.23
2023-07-10T16:17:45.550Z,29.24
2023-07-10T16:20:19.870Z,29.28
2023-07-10T16:23:05.823Z,29.26
2023-07-10T16:25:32.607Z,29.26
2023-07-10T16:27:58.980Z,29.29
2023-07-10T16:30:26.381Z,29.27
2023-07-10T16:32:53.068Z,29.26
2023-07-10T16:35:20.798Z,29.22
2023-07-10T16:37:47.395Z,29.12
2023-07-10T16:40:24.532Z,29.09
2023-07-10T16:42:53.059Z,29.07
2023-07-10T16:45:19.465Z,29.02
2023-07-10T16:47:46.090Z,29.02
2023-07-10T16:50:17.800Z,29.06
2023-07-10T16:52:45.065Z,28.96
2023-07-10T16:55:29.507Z,28.94
2023-07-10T16:57:58.978Z,28.87
2023-07-10T17:00:29.969Z,28.82
2023-07-10T17:02:58.239Z,28.84
2023-07-10T17:05:25.140Z,28.84
2023-07-10T17:07:51.535Z,28.81
2023-07-10T17:10:18.238Z,28.74
2023-07-10T17:12:45.520Z,28.77
2023-07-10T17:15:15.355Z,28.74
2023-07-10T17:17:42.173Z,28.70
2023-07-10T17:20:13.460Z,28.66
2023-07-10T17:22:39.953Z,28.68
2023-07-10T17:25:17.229Z,28.65
2023-07-10T17:27:44.256Z,28.66
2023-07-10T17:30:14.704Z,28.68
2023-07-10T17:32:41.383Z,28.58
2023-07-10T17:35:14.986Z,28.47
2023-07-10T17:37:43.959Z,28.45
2023-07-10T17:40:14.728Z,28.37
2023-07-10T17:42:41.736Z,28.33
2023-07-10T17:45:15.442Z,28.37
2023-07-10T17:47:41.925Z,28.40
2023-07-10T17:50:11.876Z,28.44
2023-07-10T17:52:38.196Z,28.44
2023-07-10T17:55:04.787Z,28.44
2023-07-10T17:57:31.214Z,28.43
2023-07-10T17:59:57.776Z,28.39
2023-07-10T18:02:28.354Z,28.38
2023-07-10T18:04:54.715Z,28.36
2023-07-10T18:07:21.178Z,28.35
2023-07-10T18:09:47.578Z,28.25
2023-07-10T18:12:15.838Z,28.21
2023-07-10T18:14:43.036Z,28.20
2023-07-10T18:17:14.063Z,28.16
2023-07-10T18:19:42.262Z,28.13
2023-07-10T18:22:11.837Z,28.15
2023-07-10T18:24:38.159Z,28.14
2023-07-10T18:27:05.003Z,28.09
2023-07-10T18:29:31.482Z,28.03
2023-07-10T18:31:58.031Z,27.96
2023-07-10T18:34:24.550Z,27.90
2023-07-10T18:36:51.252Z,27.87
2023-07-10T18:39:17.774Z,27.86
2023-07-10T18:41:44.426Z,27.84
2023-07-10T18:44:14.739Z,27.81
2023-07-10T18:46:41.399Z,27.76
2023-07-10T18:49:16.452Z,27.73
2023-07-10T18:51:43.608Z,27.72
2023-07-10T18:54:12.772Z,27.70
2023-07-10T18:56:39.696Z,27.67
2023-07-10T18:59:14.704Z,27.59
2023-07-10T19:01:42.706Z,27.48
2023-07-10T19:04:11.822Z,27.42
2023-07-10T19:06:41.467Z,27.34
2023-07-10T19:09:20.783Z,27.23
2023-07-10T19:11:48.349Z,27.16
2023-07-10T19:14:16.181Z,27.09
2023-07-10T19:16:43.092Z,27.01
2023-07-10T19:19:15.016Z,26.94
2023-07-10T19:21:41.733Z,26.89
2023-07-10T19:24:28.452Z,26.79
2023-07-10T19:26:55.027Z,26.67
2023-07-10T19:29:21.792Z,26.60
2023-07-10T19:31:59.029Z,26.52
2023-07-10T19:34:25.991Z,26.44
2023-07-10T19:36:52.732Z,26.36
2023-07-10T19:39:20.390Z,26.26
2023-07-10T19:41:47.352Z,26.22
2023-07-10T19:44:16.208Z,26.17
2023-07-10T19:46:42.833Z,26.10
2023-07-10T19:49:13.346Z,26.04
2023-07-10T19:51:39.977Z,25.97
2023-07-10T19:54:19.429Z,25.91
2023-07-10T19:56:46.104Z,25.86
2023-07-10T19:59:20.816Z,25.80
2023-07-10T20:01:51.194Z,25.75
2023-07-10T20:04:17.753Z,25.69
2023-07-10T20:06:45.598Z,25.65
2023-07-10T20:09:16.800Z,25.61
2023-07-10T20:11:43.616Z,25.57
2023-07-10T20:14:14.257Z,25.51
2023-07-10T20:16:40.966Z,25.47
2023-07-10T20:19:20.960Z,25.41
2023-07-10T20:21:48.610Z,25.34
2023-07-10T20:24:16.142Z,25.30
2023-07-10T20:26:43.122Z,25.27
2023-07-10T20:29:12.811Z,25.24
2023-07-10T20:31:39.289Z,25.24
2023-07-10T20:34:11.581Z,25.13
2023-07-10T20:36:38.962Z,25.15
2023-07-10T20:39:10.871Z,25.11
2023-07-10T20:41:38.362Z,25.07
2023-07-10T20:44:19.325Z,25.01
2023-07-10T20:46:48.783Z,24.99
2023-07-10T20:49:17.051Z,24.99
2023-07-10T20:51:43.527Z,24.99
2023-07-10T20:54:11.164Z,24.95
2023-07-10T20:56:37.718Z,24.93
2023-07-10T20:59:06.070Z,24.90
2023-07-10T21:01:32.582Z,24.88
2023-07-10T21:03:59.046Z,24.87
2023-07-10T21:06:34.416Z,24.84
2023-07-10T21:09:01.583Z,24.77
2023-07-10T21:11:32.088Z,24.74
2023-07-10T21:13:59.217Z,24.72
2023-07-10T21:16:28.538Z,24.67
2023-07-10T21:18:54.950Z,24.67
2023-07-10T21:21:21.406Z,24.64
2023-07-10T21:23:48.448Z,24.55
2023-07-10T21:26:17.417Z,24.54
2023-07-10T21:28:52.510Z,24.49
2023-07-10T21:31:23.802Z,24.48
2023-07-10T21:33:52.389Z,24.41
2023-07-10T21:36:19.204Z,24.32
2023-07-10T21:38:45.942Z,24.32
2023-07-10T21:41:16.808Z,24.28
2023-07-10T21:43:44.138Z,24.25
2023-07-10T21:46:12.567Z,24.22
2023-07-10T21:48:39.090Z,24.17
2023-07-10T21:51:07.166Z,24.14
2023-07-10T21:53:33.578Z,24.05
2023-07-10T21:56:02.500Z,24.03
2023-07-10T21:58:42.267Z,24.02
2023-07-10T22:01:12.684Z,23.95
2023-07-10T22:03:40.536Z,23.94
2023-07-10T22:06:09.255Z,23.95
2023-07-10T22:08:36.665Z,23.94
2023-07-10T22:11:04.070Z,23.94
2023-07-10T22:13:31.748Z,23.92
2023-07-10T22:16:00.274Z,23.88
2023-07-10T22:18:33.850Z,23.83
2023-07-10T22:21:00.659Z,23.64
2023-07-10T22:23:28.415Z,23.73
2023-07-10T22:25:55.369Z,23.73
2023-07-10T22:28:24.501Z,23.70
2023-07-10T22:30:51.806Z,23.68
2023-07-10T22:33:19.070Z,23.67
2023-07-10T22:35:46.336Z,23.64
2023-07-10T22:38:14.712Z,23.62
2023-07-10T22:40:41.902Z,23.60
2023-07-10T22:43:13.077Z,23.57
2023-07-10T22:45:39.969Z,23.47
2023-07-10T22:48:12.985Z,23.44
2023-07-10T22:50:42.591Z,23.40
2023-07-10T22:53:09.371Z,23.35
2023-07-10T22:55:36.314Z,23.32
2023-07-10T22:58:02.771Z,23.30
2023-07-10T23:00:30.488Z,23.25
2023-07-10T23:02:56.885Z,23.20
2023-07-10T23:05:25.700Z,23.17
2023-07-10T23:07:52.144Z,23.12
2023-07-10T23:10:20.033Z,23.08
2023-07-10T23:12:46.851Z,23.03
2023-07-10T23:15:14.096Z,23.01
2023-07-10T23:17:41.214Z,22.98
2023-07-10T23:20:09.166Z,22.96
2023-07-10T23:22:35.602Z,22.91
2023-07-10T23:25:07.448Z,22.85
2023-07-10T23:27:34.205Z,22.83
2023-07-10T23:30:00.701Z,22.80
2023-07-10T23:32:33.752Z,22.79
2023-07-10T23:35:00.681Z,22.79
2023-07-10T23:37:27.989Z,22.80
2023-07-10T23:39:55.160Z,22.78
2023-07-10T23:42:22.212Z,22.74
2023-07-10T23:44:48.642Z,22.69
2023-07-10T23:47:15.113Z,22.63
2023-07-10T23:49:41.549Z,22.61
2023-07-10T23:52:08.013Z,22.62
2023-07-10T23:54:34.433Z,22.61
2023-07-10T23:57:11.697Z,22.62
2023-07-10T23:59:38.606Z,22.60
